createdAt,value
2023-04-08T00:00:38.636Z,39.20
2023-04-08T00:20:38.324Z,28.20
2023-04-08T00:40:38.099Z,21.70
2023-04-08T01:00:37.850Z,22.40
2023-04-08T01:20:37.555Z,33.20
2023-04-08T01:40:37.281Z,20.50
2023-04-08T02:00:37.046Z,26.60
2023-04-08T02:20:36.720Z,38.00
2023-04-08T02:40:36.527Z,19.80
2023-04-08T03:00:36.265Z,20.90
2023-04-08T03:20:35.933Z,18.30
2023-04-08T03:40:35.661Z,19.50
2023-04-08T04:00:35.373Z,20.60
2023-04-08T04:20:35.125Z,20.10
2023-04-08T04:40:34.840Z,30.90
2023-04-08T05:00:34.566Z,43.70
2023-04-08T05:20:34.305Z,34.90
2023-04-08T05:40:34.069Z,36.60
2023-04-08T06:00:33.768Z,32.80
2023-04-08T06:20:33.525Z,26.80
2023-04-08T06:40:33.288Z,23.90
2023-04-08T07:00:33.061Z,34.20
2023-04-08T07:20:32.706Z,30.70
2023-04-08T07:40:32.436Z,31.70
2023-04-08T08:00:32.160Z,31.30
2023-04-08T08:20:31.935Z,43.40
2023-04-08T08:40:31.625Z,30.20
2023-04-08T09:00:33.306Z,47.10
2023-04-08T09:20:31.166Z,20.60
2023-04-08T09:40:30.906Z,45.80
2023-04-08T10:00:30.559Z,24.80
2023-04-08T10:20:30.271Z,43.30
2023-04-08T10:40:30.005Z,36.10
2023-04-08T11:00:29.749Z,23.40
2023-04-08T11:20:29.534Z,21.40
2023-04-08T11:40:29.203Z,33.00
2023-04-08T12:00:28.906Z,26.80
2023-04-08T12:20:28.647Z,34.30
2023-04-08T12:40:28.356Z,36.60
2023-04-08T13:00:28.069Z,28.50
2023-04-08T13:20:27.779Z,42.80
2023-04-08T13:40:27.482Z,26.90
2023-04-08T14:00:27.208Z,30.40
2023-04-08T14:20:26.928Z,34.90
2023-04-08T14:40:26.657Z,32.70
2023-04-08T15:00:26.353Z,41.70
2023-04-08T15:20:26.065Z,44.10
2023-04-08T15:40:25.839Z,33.50
2023-04-08T16:00:25.554Z,36.60
2023-04-08T16:20:26.269Z,24.10
2023-04-08T16:40:25.015Z,50.10
2023-04-08T17:00:24.827Z,36.00
2023-04-08T17:20:24.545Z,38.90
2023-04-08T17:40:24.211Z,53.40
2023-04-08T18:00:23.938Z,38.50
2023-04-08T18:20:23.737Z,65.20
2023-04-08T18:40:23.383Z,73.00
2023-04-08T19:00:23.129Z,107.00
2023-04-08T19:20:22.853Z,100.70
2023-04-08T19:40:22.566Z,87.90
2023-04-08T20:00:22.354Z,85.40
2023-04-08T20:20:22.036Z,96.70
2023-04-08T20:40:21.756Z,114.00
2023-04-08T21:00:21.482Z,107.80
2023-04-08T21:20:21.230Z,115.00
2023-04-08T21:40:20.983Z,140.60
2023-04-08T22:00:20.658Z,123.70
2023-04-08T22:20:20.399Z,118.10
2023-04-08T22:40:20.131Z,146.80
2023-04-08T23:00:19.843Z,115.20
2023-04-08T23:20:19.609Z,132.30
2023-04-08T23:40:19.302Z,125.90
